< < Back
Terminal Aerodrome Forecast


Current Version              Previous Versions:   1  2  3  4  5  6  7  8  9  

Terminal Aerodrome Forecast

193
FTUS42 KCAE 062300
TAFAGS
TAF
KAGS 062326Z 0700/0724 13004KT P6SM BKN250
     FM070100 VRB03KT P6SM BKN250
     FM071500 03009KT P6SM SCT100 BKN250
     FM071900 01010G18KT P6SM SCT045 BKN150=

Latest METAR

524
SAUS70 KWBC 062300 RRA
MTRAGS
METAR KAGS 062253Z 13004KT 10SM CLR 25/13 A3009 RMK AO2 SLP188
T02500128


USA.gov is the U.S. government's official web portal to all federal, state and local government web resources and services.